Flight Track Log - Related Links

Times and Time Zones

All times are in EDT time to prevent confusion due to time zone crossing. See the N700QA flight status page for this flight to view local times or setup timezone preferences in your user account.

Time Position Orientation Groundspeed Altitude Reporting Facility
EDT Latitude Longitude Course Direction KTS MPH feet Rate Location/Type
Sat 10:50:57 PM 33.9136 -118.4717 96° East 194 223 2,800  Level Los Angeles Center
Sat 10:51:58 PM 33.8597 -118.5214 217° Southwest 251 289 4,500 1,951 Climbing Los Angeles Center
Sat 10:53:00 PM 33.7853 -118.5108 173° South 269 310 6,800 2,146 Climbing Los Angeles Center
Sat 10:54:01 PM 33.7181 -118.4850 162° South 262 302 8,900 2,066 Climbing Los Angeles Center
Sat 10:55:02 PM 33.6808 -118.4111 121° Southeast 267 307 11,000 1,820 Climbing Los Angeles Center
Sat 10:56:00 PM 34.0568 -117.5874 96° East  Level Estimated
Sat 10:56:03 PM 33.6669 -118.3225 101° East 277 319 12,600  Level Los Angeles Center
Sat 10:57:04 PM 33.6717 -118.2236 87° East 299 344 14,000 1,561 Climbing Los Angeles Center
Sat 10:58:06 PM 33.6781 -118.0992 86° East 318 366 15,800 1,512 Climbing Los Angeles Center
Sat 10:59:07 PM 33.6997 -117.9933 76° East 327 376 17,100 1,426 Climbing Los Angeles Center
Sat 11:00:08 PM 33.7181 -117.8839 79° East 334 384 18,700 1,377 Climbing Los Angeles Center
Sat 11:01:09 PM 33.7183 -117.7683 90° East 349 402 19,900 1,180 Climbing Los Angeles Center
Sat 11:02:10 PM 33.7117 -117.6511 94° East 352 405 21,100 1,082 Climbing Los Angeles Center
Sat 11:03:11 PM 33.7061 -117.5322 93° East 355 409 22,100 1,024 Climbing Los Angeles Center
Sat 11:04:13 PM 33.7011 -117.4100 93° East 362 417 23,200 976 Climbing Los Angeles Center
Sat 11:05:14 PM 33.6931 -117.2878 94° East 367 422 24,100 836 Climbing Los Angeles Center
Sat 11:06:15 PM 33.6864 -117.1614 94° East 374 430 24,900 836 Climbing Los Angeles Center
Sat 11:07:16 PM 33.6789 -117.0083 93° East 382 440 25,800 738 Climbing Los Angeles Center
Sat 11:08:17 PM 33.6731 -116.8775 93° East 389 448 26,400 590 Climbing Los Angeles Center
Sat 11:09:18 PM 33.6642 -116.7406 94° East 402 463 27,000 639 Climbing Los Angeles Center
Sat 11:10:19 PM 33.6569 -116.6022 94° East 411 473 27,700 639 Climbing Los Angeles Center
Sat 11:11:20 PM 33.6697 -116.4661 84° East 415 478 28,300 578 Climbing Los Angeles Center
Sat 11:12:34 PM 33.6972 -116.3328 76° East 413 475 29,000 578 Climbing Los Angeles Center
Sat 11:13:35 PM 33.7222 -116.1672 80° East 419 482 29,600 590 Climbing Los Angeles Center
Sat 11:14:36 PM 33.7456 -116.0294 78° East 420 483 30,200 590 Climbing Los Angeles Center
Sat 11:15:37 PM 33.7681 -115.8919 79° East 419 482 30,800 590 Climbing Los Angeles Center
Sat 11:16:38 PM 33.7889 -115.7561 80° East 417 480 31,400 541 Climbing Los Angeles Center
Sat 11:17:39 PM 33.8136 -115.6194 78° East 418 481 31,900 492 Climbing Los Angeles Center
Sat 11:18:40 PM 33.8342 -115.4781 80° East 429 494 32,400 541 Climbing Los Angeles Center
Sat 11:19:41 PM 33.8561 -115.3389 79° East 425 489 33,000 590 Climbing Los Angeles Center
Sat 11:20:42 PM 33.8767 -115.2006 80° East 421 484 33,600 541 Climbing Los Angeles Center
Sat 11:21:43 PM 33.9031 -115.0358 79° East 419 482 34,100 443 Climbing Los Angeles Center
Sat 11:22:44 PM 33.9244 -114.8964 79° East 423 487 34,500 443 Climbing Los Angeles Center
Sat 11:23:45 PM 33.9442 -114.7594 80° East 419 482 35,000 246 Climbing Los Angeles Center
Sat 11:24:46 PM 33.9667 -114.6203 79° East 422 486 35,000  Level Los Angeles Center
Sat 11:25:47 PM 33.9889 -114.4747 80° East 441 507 35,000  Level Los Angeles Center
Sat 11:26:48 PM 34.0106 -114.3306 80° East 439 505 35,000  Level Los Angeles Center
Sat 11:27:49 PM 34.0333 -114.1828 79° East 449 517 35,000 49 Level Los Angeles Center
Sat 11:28:50 PM 34.0553 -114.0350 80° East 452 520 35,100 49 Climbing Los Angeles Center
Sat 11:29:51 PM 34.0753 -113.8850 81° East 452 520 35,100  Level Los Angeles Center
Sat 11:30:30 PM 34.0897 -113.7900 80° East 455 524 35,100  Level Albuquerque Center
Sat 11:31:32 PM 34.1122 -113.6381 80° East 458 527 35,100  Level Albuquerque Center
Sat 11:32:31 PM 34.1336 -113.4892 80° East 454 522 35,100  Level Albuquerque Center
Sat 11:33:31 PM 34.1542 -113.3419 80° East 449 517 35,100  Level Albuquerque Center
Sat 11:34:34 PM 34.1736 -113.1947 81° East 445 512 35,100 -49 Level Albuquerque Center
Sat 11:35:33 PM 34.1936 -113.0492 81° East 442 509 35,000  Descending Albuquerque Center
Sat 11:36:35 PM 34.2186 -112.8744 80° East 440 506 35,100  Climbing Albuquerque Center
Sat 11:37:33 PM 34.2375 -112.7286 81° East 439 505 35,000 -50 Descending Albuquerque Center
Sat 11:38:34 PM 34.2575 -112.5853 80° East 436 502 35,000 50 Level Albuquerque Center
Sat 11:39:34 PM 34.2778 -112.4392 80° East 438 504 35,100  Climbing Albuquerque Center
Sat 11:40:34 PM 34.2961 -112.2956 81° East 435 501 35,000  Descending Albuquerque Center
Sat 11:41:35 PM 34.3150 -112.1508 81° East 434 499 35,100 50 Climbing Albuquerque Center
Sat 11:42:35 PM 34.3336 -112.0058 81° East 434 499 35,100 -49 Level Albuquerque Center
Sat 11:43:37 PM 34.3522 -111.8614 81° East 435 501 35,000  Descending Albuquerque Center
Sat 11:44:36 PM 34.3703 -111.7156 81° East 433 498 35,100  Climbing Albuquerque Center
Sat 11:45:37 PM 34.3889 -111.5697 81° East 434 499 35,000  Descending Albuquerque Center
Sat 11:46:39 PM 34.4078 -111.4244 81° East 435 501 35,100 49 Climbing Albuquerque Center
Sat 11:47:39 PM 34.4250 -111.2800 82° East 434 499 35,100  Level Albuquerque Center
Sat 11:48:38 PM 34.4431 -111.1353 81° East 433 498 35,100  Level Albuquerque Center
Sat 11:49:39 PM 34.4592 -110.9894 82° East 436 502 35,100 -49 Level Albuquerque Center
Sat 11:50:41 PM 34.4761 -110.8467 82° East 432 497 35,000  Descending Albuquerque Center
Sat 11:51:40 PM 34.4950 -110.7033 81° East 431 496 35,100  Climbing Albuquerque Center
Sat 11:52:43 PM 34.5142 -110.5625 81° East 426 490 35,000 -49 Descending Albuquerque Center
Sat 11:53:43 PM 34.5311 -110.4200 82° East 427 491 35,000  Level Albuquerque Center
Sat 11:54:42 PM 34.5456 -110.2664 83° East 434 499 35,000 50 Level Albuquerque Center
Sat 11:55:44 PM 34.5639 -110.1336 80° East 422 486 35,100 50 Climbing Albuquerque Center
Sat 11:56:41 PM 34.5767 -109.9914 84° East 435 501 35,100 -50 Level Albuquerque Center
Sat 11:57:45 PM 34.5947 -109.8311 82° East 433 498 35,000 -49 Descending Albuquerque Center
Sat 11:58:44 PM 34.6086 -109.6942 83° East 428 493 35,000  Level Albuquerque Center
Sat 11:59:43 PM 34.6247 -109.5583 82° East 426 490 35,000  Level Albuquerque Center
Sun 12:00:46 AM 34.6417 -109.3992 83° East 427 491 35,000  Level Albuquerque Center
Sun 12:01:45 AM 34.6561 -109.2636 83° East 425 489 35,000  Level Albuquerque Center
Sun 12:02:45 AM 34.6700 -109.1294 83° East 422 486 35,000  Level Albuquerque Center
Sun 12:03:45 AM 34.6847 -108.9964 82° East 419 482 35,000  Level Albuquerque Center
Sun 12:04:48 AM 34.6769 -108.8400 93° East 424 488 35,000  Level Albuquerque Center
Sun 12:05:48 AM 34.6436 -108.7094 107° East 426 490 35,000  Level Albuquerque Center
Sun 12:06:46 AM 34.6125 -108.5806 106° East 421 484 35,000 -850 Level Albuquerque Center
Sun 12:07:48 AM 34.5644 -108.4400 113° Southeast 418 481 33,300 -1,686 Descending Albuquerque Center
Sun 12:08:47 AM 34.5219 -108.3183 113° Southeast 403 464 31,600 -2,033 Descending Albuquerque Center
Sun 12:09:49 AM 34.5261 -108.1986 88° East 400 460 29,200 -2,350 Descending Albuquerque Center
Sun 12:10:47 AM 34.5925 -108.0950 52° Northeast 392 451 26,900 -2,319 Descending Albuquerque Center
Sun 12:11:48 AM 34.6650 -107.9972 48° Northeast 389 448 24,600 -2,213 Descending Albuquerque Center
Sun 12:12:49 AM 34.7339 -107.8983 50° Northeast 386 444 22,400 -2,115 Descending Albuquerque Center
Sun 12:13:50 AM 34.7944 -107.7986 54° Northeast 374 430 20,300 -2,250 Descending Albuquerque Center
Sun 12:14:49 AM 34.8419 -107.6933 61° Northeast 356 410 17,900 -2,250 Descending Albuquerque Center
Sun 12:15:50 AM 34.8447 -107.5764 88° East 349 402 15,800 -2,113 Descending Albuquerque Center
Sun 12:16:00 AM 34.8408 -107.5492 100° East 340 391 15,400 -1,875 Descending Albuquerque Center
Sun 12:16:06 AM 34.8417 -107.5414 83° East 337 388 15,300 -840 Descending Albuquerque Center
Sun 12:16:50 AM 34.8339 -107.4683 97° East 324 373 14,700 -1,065 Descending Albuquerque Center
Sun 12:17:08 AM 34.8328 -107.4375 93° East 298 343 14,200 -1,200 Descending Albuquerque Center
Sun 12:17:50 AM 34.8292 -107.3692 94° East 298 343 13,500 -1,200 Descending Albuquerque Center
Sun 12:18:08 AM 34.8267 -107.3383 96° East 288 331 13,000 -387 Descending Albuquerque Center
Sun 12:18:52 AM 34.8214 -107.2714 95° East 293 337 13,100  Climbing Albuquerque Center
Sun 12:19:08 AM 34.8183 -107.2397 97° East 290 334 13,000  Descending Albuquerque Center
Sun 12:19:51 AM 34.8389 -107.1797 67° East 294 338 13,100  Climbing Albuquerque Center
Sun 12:20:09 AM 34.8514 -107.1461 66° East 289 333 13,000 -700 Descending Albuquerque Center
Sun 12:20:51 AM 34.8636 -107.0897 75° East 283 326 12,400 -1,180 Descending Albuquerque Center
Sun 12:21:10 AM 34.8633 -107.0528 91° East 270 311 11,800 -1,100 Descending Albuquerque Center
Sun 12:21:51 AM 34.8636 -107.0017 90° East 264 304 11,300 -1,034 Descending Albuquerque Center
Sun 12:22:08 AM 34.8636 -106.9672 90° East 249 287 10,800 -1,082 Descending Albuquerque Center
Sun 12:22:52 AM 34.8633 -106.9186 90° East 251 289 10,200 -1,143 Descending Albuquerque Center
Sun 12:23:11 AM 34.8642 -106.8844 88° East 248 285 9,600 -1,048 Descending Albuquerque Center
Sun 12:23:55 AM 34.8914 -106.8500 46° Northeast 261 300 9,100 -610 Descending Albuquerque Center
Sun 12:24:10 AM 34.9206 -106.8414 14° North 260 299 9,000 -105 Descending Albuquerque Center
Sun 12:24:52 AM 34.9625 -106.8361 North 259 298 9,000 -600 Level Albuquerque Center
Sun 12:25:10 AM 34.9933 -106.8306 North 267 307 8,400 -1,082 Descending Albuquerque Center
Sun 12:25:53 AM 35.0442 -106.7944 30° Northeast 279 321 7,900 -689 Descending Albuquerque Center
Sun 12:26:11 AM 35.0572 -106.7806 41° Northeast 275 316 7,700 -393 Descending Albuquerque Center
Sun 12:26:54 AM 35.0683 -106.7247 76° East 241 277 7,500 -500 Descending Albuquerque Center
Sun 12:27:11 AM 35.0619 -106.7094 117° Southeast 197 227 7,200 -1,322 Descending Albuquerque Center
Sun 12:27:53 AM 35.0478 -106.6708 114° Southeast 179 206 6,200 -1,412 Descending Albuquerque Center
Sun 12:28:19 AM 35.0431 -106.6494 105° East 145 167 5,600 -787 Descending Albuquerque Center
Sun 12:28:54 AM 35.0439 -106.6214 88° East 151 174 5,400 -343 Descending Albuquerque Center
Sun 12:30:00 AM 35.0402 -106.6092 90° East  Level Estimated
Sun 12:37:00 AM 35.0402 -106.6092 90° East  Level Estimated

Login

Don't have an account? Register now (free) for customized features, flight alerts, and more!